Time;durP1;ratioP1;P1;durP2;ratioP2;P2;SDS_P1;SDS_P2;PMS_P1;PMS_P2;Temp;Humidity;BMP_temperature;BMP_pressure;BME280_temperature;BME280_humidity;BME280_pressure;Samples;Min_cycle;Max_cycle;Signal;HPM_P1;HPM_P2
2022/03/29 00:00:59;;;;;;;17.47;9.43;;;;;;;12.72;60.82;94754.03;5034586;28;20237;-62
2022/03/29 00:03:25;;;;;;;14.90;9.67;;;;;;;12.75;59.11;94769.03;5033623;28;20175;-61
2022/03/29 00:05:50;;;;;;;15.53;10.33;;;;;;;12.62;61.09;94743.84;5034913;28;20217;-62
2022/03/29 00:08:16;;;;;;;15.50;9.90;;;;;;;12.58;60.84;94746.84;5034146;28;20193;-62
2022/03/29 00:10:42;;;;;;;20.38;11.23;;;;;;;12.42;63.34;94681.09;5032633;28;20293;-61
2022/03/29 00:13:07;;;;;;;16.02;9.82;;;;;;;12.37;62.12;94702.88;5033685;28;20266;-61
2022/03/29 00:15:33;;;;;;;18.55;9.85;;;;;;;12.38;61.12;94719.78;5033233;28;20266;-60
2022/03/29 00:17:59;;;;;;;15.53;9.83;;;;;;;12.53;60.37;94734.50;5034339;28;20683;-63
2022/03/29 00:20:24;;;;;;;12.33;9.00;;;;;;;12.42;60.92;94716.03;5033859;28;20569;-63
2022/03/29 00:22:50;;;;;;;16.00;9.50;;;;;;;12.36;61.10;94714.03;5033818;28;20182;-63
2022/03/29 00:25:17;;;;;;;13.93;8.80;;;;;;;12.25;62.97;94676.75;5033157;28;20578;-66
2022/03/29 00:27:42;;;;;;;16.58;9.23;;;;;;;12.24;62.30;94690.44;5033506;28;20618;-62
2022/03/29 00:30:11;;;;;;;14.83;9.17;;;;;;;12.34;60.84;94715.91;5032509;28;20218;-62
2022/03/29 00:32:38;;;;;;;17.48;9.40;;;;;;;12.31;61.90;94690.69;5032964;28;20198;-62
2022/03/29 00:35:04;;;;;;;15.33;10.00;;;;;;;12.11;63.87;94644.06;5031917;28;20652;-61
2022/03/29 00:37:29;;;;;;;15.07;9.00;;;;;;;12.28;62.39;94673.13;5031943;28;20202;-61
2022/03/29 00:39:55;;;;;;;14.03;8.20;;;;;;;12.42;61.63;94691.31;5046868;23;20232;-62
2022/03/29 00:42:20;;;;;;;12.67;10.10;;;;;;;12.21;62.11;94669.53;5053228;28;20210;-61
2022/03/29 00:44:46;;;;;;;16.23;9.20;;;;;;;12.21;62.48;94656.78;5053263;28;20676;-61
2022/03/29 00:47:12;;;;;;;11.63;9.00;;;;;;;12.21;62.91;94659.31;5052394;28;20202;-60
2022/03/29 00:49:38;;;;;;;12.77;8.90;;;;;;;12.29;62.64;94655.16;5051663;28;20189;-62
2022/03/29 00:52:04;;;;;;;16.23;9.93;;;;;;;12.30;61.98;94666.94;5053116;28;20208;-62
2022/03/29 00:54:34;;;;;;;18.97;10.10;;;;;;;12.27;61.30;94677.41;5053017;28;20586;-65
2022/03/29 00:57:00;;;;;;;15.03;10.13;;;;;;;12.12;62.78;94632.16;5053161;28;20271;-62
2022/03/29 00:59:27;;;;;;;14.50;9.57;;;;;;;12.11;61.90;94656.00;5053329;28;20190;-63
2022/03/29 01:01:54;;;;;;;14.27;9.13;;;;;;;12.06;62.56;94643.69;5052992;28;20735;-62
2022/03/29 01:04:21;;;;;;;14.13;10.20;;;;;;;12.06;62.52;94643.69;5051590;28;20224;-63
2022/03/29 01:06:47;;;;;;;12.57;9.20;;;;;;;12.21;62.90;94644.84;5051057;28;20204;-65
2022/03/29 01:09:13;;;;;;;14.57;9.80;;;;;;;12.15;63.53;94626.75;5051007;28;20185;-65
2022/03/29 01:11:41;;;;;;;14.67;9.13;;;;;;;12.12;64.85;94601.56;5052164;28;20202;-59
2022/03/29 01:14:07;;;;;;;10.03;8.20;;;;;;;12.22;65.56;94592.13;5053352;28;20268;-62
2022/03/29 01:19:21;;;;;;;17.40;9.37;;;;;;;12.26;63.89;94608.75;5052545;28;20189;-60
2022/03/29 01:22:13;;;;;;;15.50;9.47;;;;;;;12.26;62.38;94636.78;5052621;28;20204;-65
2022/03/29 01:24:43;;;;;;;15.30;9.57;;;;;;;12.28;62.05;94629.81;5050000;28;20285;-62
2022/03/29 01:27:11;;;;;;;14.75;9.27;;;;;;;12.27;61.13;94646.84;5050750;28;20201;-64
2022/03/29 01:29:37;;;;;;;17.13;8.63;;;;;;;12.12;62.94;94607.44;5052292;28;20687;-62
2022/03/29 01:32:06;;;;;;;15.80;9.17;;;;;;;12.12;64.44;94573.53;5051443;28;20202;-63
2022/03/29 01:34:34;;;;;;;14.13;10.00;;;;;;;12.09;62.24;94614.56;5052354;28;20186;-64
2022/03/29 01:36:59;;;;;;;13.87;9.03;;;;;;;11.95;63.41;94592.09;5051661;28;20211;-64
2022/03/29 01:39:25;;;;;;;16.50;9.40;;;;;;;12.10;64.33;94572.88;5050603;28;20186;-65
2022/03/29 01:41:51;;;;;;;15.77;8.60;;;;;;;12.09;63.76;94576.34;5050303;28;20628;-60
2022/03/29 01:44:16;;;;;;;16.63;9.20;;;;;;;11.97;63.68;94575.75;5051821;28;20654;-66
2022/03/29 01:46:42;;;;;;;13.60;8.67;;;;;;;11.96;64.14;94568.25;5050491;28;20216;-63
2022/03/29 01:49:10;;;;;;;16.43;9.63;;;;;;;12.00;63.58;94567.81;5052328;28;20227;-64
2022/03/29 01:51:35;;;;;;;20.37;8.83;;;;;;;12.07;63.47;94568.03;5046638;23;20225;-64
2022/03/29 01:54:03;;;;;;;15.13;10.20;;;;;;;12.02;63.84;94558.28;5032333;28;20635;-63
2022/03/29 01:56:31;;;;;;;13.37;8.93;;;;;;;11.96;64.40;94558.06;5032737;28;20707;-64
2022/03/29 01:58:57;;;;;;;16.40;10.30;;;;;;;11.98;64.21;94558.72;5032609;28;20269;-65
2022/03/29 02:01:22;;;;;;;15.17;9.40;;;;;;;12.03;63.44;94570.09;5056654;23;20604;-63
2022/03/29 02:03:48;;;;;;;15.43;9.20;;;;;;;11.94;64.29;94553.06;5060663;28;20177;-63
2022/03/29 02:06:13;;;;;;;16.90;10.00;;;;;;;11.91;63.47;94563.56;5059411;28;20209;-64
2022/03/29 02:08:39;;;;;;;17.47;9.50;;;;;;;12.00;62.94;94562.72;5054315;28;20182;-63
2022/03/29 02:11:04;;;;;;;16.10;9.53;;;;;;;11.99;64.05;94542.47;5054011;28;20217;-64
2022/03/29 02:13:30;;;;;;;14.63;10.10;;;;;;;11.97;64.51;94537.53;5050666;28;20644;-63
2022/03/29 02:15:55;;;;;;;15.53;9.00;;;;;;;11.97;63.48;94541.81;5052508;28;20208;-63
2022/03/29 02:18:21;;;;;;;11.90;8.67;;;;;;;11.87;64.60;94518.94;5050703;28;20197;-62
2022/03/29 02:20:47;;;;;;;17.67;9.10;;;;;;;11.82;63.46;94536.38;5052391;28;20284;-63
2022/03/29 02:23:15;;;;;;;14.70;9.37;;;;;;;11.78;64.31;94519.75;5051366;28;20277;-63
2022/03/29 02:25:41;;;;;;;11.97;8.87;;;;;;;11.80;64.47;94513.59;5051938;28;20209;-61
2022/03/29 02:28:07;;;;;;;17.80;9.33;;;;;;;11.66;64.71;94511.50;5051327;28;20256;-63
2022/03/29 02:30:34;;;;;;;34.47;11.77;;;;;;;11.65;64.33;94521.81;5056881;22;20288;-63
2022/03/29 02:32:59;;;;;;;26.87;10.10;;;;;;;11.58;64.46;94520.75;5031571;28;20174;-62
2022/03/29 02:35:25;;;;;;;29.90;10.70;;;;;;;11.63;63.92;94529.59;5031378;28;20205;-61
2022/03/29 02:37:50;;;;;;;36.67;11.87;;;;;;;11.60;64.44;94518.88;5031295;28;20206;-66
2022/03/29 02:40:16;;;;;;;34.60;11.10;;;;;;;11.50;64.96;94508.72;5031216;28;20252;-60
2022/03/29 02:42:42;;;;;;;36.50;11.37;;;;;;;11.51;65.08;94504.44;5031306;28;20182;-60
2022/03/29 02:45:12;;;;;;;23.77;10.40;;;;;;;11.34;66.13;94497.50;5033590;28;20293;-65
2022/03/29 02:47:37;;;;;;;31.33;10.43;;;;;;;11.39;65.38;94495.38;5017952;28;20604;-66
2022/03/29 02:50:04;;;;;;;27.63;11.50;;;;;;;11.34;65.93;94493.22;5017161;28;20174;-65
2022/03/29 02:52:29;;;;;;;27.63;10.33;;;;;;;11.45;65.99;94494.81;5017414;28;20182;-63
2022/03/29 02:54:55;;;;;;;25.73;10.60;;;;;;;11.64;64.29;94522.72;5019335;28;20175;-63
2022/03/29 02:57:20;;;;;;;21.80;9.87;;;;;;;11.45;64.14;94517.72;5019725;28;20732;-63
2022/03/29 02:59:46;;;;;;;31.63;11.20;;;;;;;11.23;65.39;94503.56;5035492;28;20202;-63
2022/03/29 03:02:12;;;;;;;29.37;10.63;;;;;;;10.89;66.57;94472.69;5034273;28;20584;-63
2022/03/29 03:04:37;;;;;;;31.73;11.27;;;;;;;10.94;66.56;94469.75;5034489;28;20175;-64
2022/03/29 03:07:03;;;;;;;31.00;11.07;;;;;;;10.95;66.55;94481.53;5035116;28;20277;-60
2022/03/29 03:09:28;;;;;;;32.67;11.67;;;;;;;11.05;66.07;94494.25;5034518;28;20183;-62
2022/03/29 03:11:55;;;;;;;31.80;11.53;;;;;;;11.00;66.33;94479.38;5034850;28;20221;-62
2022/03/29 03:14:20;;;;;;;24.10;9.93;;;;;;;11.15;65.02;94513.63;5016681;28;20218;-62
2022/03/29 03:16:46;;;;;;;40.80;10.67;;;;;;;10.85;66.70;94470.56;5034823;28;20241;-65
2022/03/29 03:19:12;;;;;;;31.07;11.17;;;;;;;10.81;67.54;94452.25;5016445;28;20194;-61
2022/03/29 03:21:37;;;;;;;28.33;10.13;;;;;;;10.90;66.86;94463.34;5034748;28;20224;-64
2022/03/29 03:24:03;;;;;;;25.70;10.47;;;;;;;10.98;66.84;94469.34;5034613;28;20615;-62
2022/03/29 03:26:29;;;;;;;27.47;10.70;;;;;;;11.03;66.45;94479.09;5034933;28;20202;-62
2022/03/29 03:28:54;;;;;;;27.03;10.77;;;;;;;11.11;66.34;94486.06;5036838;28;20185;-62
2022/03/29 03:31:20;;;;;;;26.87;9.77;;;;;;;11.12;66.76;94475.75;5034385;28;20679;-66
2022/03/29 03:33:45;;;;;;;36.23;11.40;;;;;;;11.17;66.12;94491.38;5034135;28;20178;-63
2022/03/29 03:36:10;;;;;;;24.13;9.60;;;;;;;11.01;66.40;94482.75;5034796;28;20221;-61
2022/03/29 03:38:36;;;;;;;21.43;10.20;;;;;;;11.01;66.90;94472.56;5034063;28;20209;-63
2022/03/29 03:41:02;;;;;;;25.87;11.03;;;;;;;10.96;67.15;94468.69;5033421;28;20264;-64
2022/03/29 03:43:27;;;;;;;27.80;11.37;;;;;;;10.96;67.03;94472.97;5015650;28;20197;-63
2022/03/29 03:45:53;;;;;;;38.20;11.20;;;;;;;11.02;66.71;94471.59;5033808;28;20216;-63
2022/03/29 03:48:18;;;;;;;40.27;11.27;;;;;;;11.08;65.92;94489.69;5016112;28;20186;-63
2022/03/29 03:50:44;;;;;;;48.87;13.53;;;;;;;10.71;66.94;94465.91;5016002;28;20687;-66
2022/03/29 03:53:09;;;;;;;103.80;17.03;;;;;;;10.72;67.04;94475.94;5034026;28;20198;-61
2022/03/29 03:55:34;;;;;;;79.47;15.33;;;;;;;10.63;67.90;94458.94;5033472;28;20194;-60
2022/03/29 03:58:00;;;;;;;60.73;13.27;;;;;;;10.67;67.44;94465.38;5033638;28;20255;-61
2022/03/29 04:00:25;;;;;;;68.53;13.77;;;;;;;10.80;66.82;94491.34;5033470;28;20575;-63
2022/03/29 04:02:51;;;;;;;50.27;12.30;;;;;;;10.65;67.48;94469.78;5033645;28;20582;-60
2022/03/29 04:05:17;;;;;;;71.90;15.13;;;;;;;10.66;67.72;94456.16;5033435;28;20269;-66
2022/03/29 04:07:42;;;;;;;65.93;14.83;;;;;;;10.75;67.54;94465.50;5015633;28;20636;-64
2022/03/29 04:10:08;;;;;;;55.83;13.73;;;;;;;10.84;67.25;94464.69;5033322;28;20178;-63
2022/03/29 04:12:35;;;;;;;68.37;14.17;;;;;;;10.76;67.71;94451.84;5033424;28;20554;-66
2022/03/29 04:15:01;;;;;;;78.43;14.90;;;;;;;10.79;67.86;94460.94;5033154;28;20205;-62
2022/03/29 04:17:26;;;;;;;95.40;15.90;;;;;;;10.91;66.88;94488.63;5033919;28;20222;-64
2022/03/29 04:19:52;;;;;;;70.23;15.20;;;;;;;11.14;66.54;94488.31;5033013;28;20179;-63
2022/03/29 04:22:18;;;;;;;53.10;14.30;;;;;;;11.04;66.75;94479.91;5033541;28;20269;-65
2022/03/29 04:24:47;;;;;;;73.20;15.60;;;;;;;11.05;66.42;94501.88;5032755;28;20732;-66
2022/03/29 04:27:12;;;;;;;89.57;16.27;;;;;;;11.07;65.36;94505.09;5014959;28;20313;-61
2022/03/29 04:29:38;;;;;;;93.70;17.43;;;;;;;10.89;66.14;94492.25;5032895;28;20250;-66
2022/03/29 04:32:04;;;;;;;126.47;23.30;;;;;;;10.73;67.25;94476.72;5033344;28;20213;-63
2022/03/29 04:34:29;;;;;;;100.13;18.07;;;;;;;10.55;67.84;94468.19;5033479;28;20178;-63
2022/03/29 04:36:58;;;;;;;110.43;18.80;;;;;;;10.66;66.70;94490.94;5015219;28;20683;-65
2022/03/29 04:39:31;;;;;;;127.27;21.77;;;;;;;10.63;68.10;94465.75;5032680;28;20570;-65
2022/03/29 04:41:58;;;;;;;48.93;12.27;;;;;;;11.17;100.00;94498.25;5015043;28;20202;-62
2022/03/29 04:44:23;;;;;;;122.37;20.63;;;;;;;11.23;73.15;94684.22;5033677;28;20275;-63
2022/03/29 04:46:49;;;;;;;78.20;17.23;;;;;;;11.29;67.71;94713.44;5032797;28;20297;-61
2022/03/29 04:49:14;;;;;;;89.00;18.90;;;;;;;11.14;67.02;94687.56;5032793;28;20641;-66
2022/03/29 04:51:41;;;;;;;95.33;18.57;;;;;;;11.08;67.28;94665.22;5014720;28;20239;-62
2022/03/29 04:54:06;;;;;;;95.80;18.70;;;;;;;11.02;67.38;94667.47;5034184;28;20545;-64
2022/03/29 04:56:33;;;;;;;99.33;20.13;;;;;;;11.05;67.11;94670.53;5032646;28;20668;-65
2022/03/29 04:58:58;;;;;;;44.20;13.50;;;;;;;10.85;66.30;94677.34;5032298;28;20659;-64
2022/03/29 05:01:24;;;;;;;47.53;13.00;;;;;;;10.85;66.84;94663.81;5032302;28;20205;-61
2022/03/29 05:03:49;;;;;;;52.97;13.10;;;;;;;10.84;65.94;94673.22;5032877;28;20240;-63
2022/03/29 05:06:15;;;;;;;33.50;12.63;;;;;;;10.97;66.46;94678.84;5032540;28;20281;-61
2022/03/29 05:08:40;;;;;;;33.40;10.70;;;;;;;10.89;65.00;94688.06;5032230;28;20205;-59
2022/03/29 05:11:05;;;;;;;25.13;10.10;;;;;;;10.97;64.74;94698.38;5032966;28;20202;-63
2022/03/29 05:13:31;;;;;;;29.10;10.17;;;;;;;10.95;63.74;94698.50;5038637;23;20230;-63
2022/03/29 05:15:57;;;;;;;24.97;10.40;;;;;;;10.79;63.92;94693.13;5032339;28;20277;-63
2022/03/29 05:18:22;;;;;;;16.33;9.17;;;;;;;10.52;64.58;94666.69;5032937;28;20237;-63
2022/03/29 05:20:47;;;;;;;26.20;9.97;;;;;;;10.35;66.04;94640.16;5048040;23;20241;-64
2022/03/29 05:23:16;;;;;;;23.80;9.93;;;;;;;10.30;67.16;94624.50;5032230;28;20182;-65
2022/03/29 05:25:42;;;;;;;21.47;9.63;;;;;;;10.40;67.08;94622.81;5031765;28;20240;-65
2022/03/29 05:28:09;;;;;;;20.60;9.33;;;;;;;10.57;66.11;94637.41;5032106;28;20202;-64
2022/03/29 05:30:34;;;;;;;23.00;10.90;;;;;;;10.71;66.05;94631.16;5032486;28;20733;-64
2022/03/29 05:33:00;;;;;;;17.83;10.27;;;;;;;10.72;66.74;94625.13;5032283;28;20213;-64
2022/03/29 05:35:29;;;;;;;22.90;10.53;;;;;;;10.93;66.49;94636.81;5014601;28;20206;-64
2022/03/29 05:37:59;;;;;;;17.57;10.43;;;;;;;11.04;65.55;94655.41;5031921;28;20206;-64
2022/03/29 05:40:26;;;;;;;19.57;10.33;;;;;;;10.97;64.39;94673.75;5030737;28;20201;-63
2022/03/29 05:42:52;;;;;;;22.10;11.03;;;;;;;10.57;67.21;94613.72;5014626;28;20719;-65
2022/03/29 05:45:19;;;;;;;32.77;11.27;;;;;;;10.79;65.60;94639.72;5013876;28;20301;-65
2022/03/29 05:50:29;;;;;;;23.47;11.57;;;;;;;10.86;65.71;94648.47;5031568;28;20212;-60
2022/03/29 05:52:56;;;;;;;27.40;12.17;;;;;;;10.72;66.11;94622.59;5031634;28;20257;-66
2022/03/29 05:55:22;;;;;;;31.67;14.23;;;;;;;10.76;67.26;94613.78;5031617;28;20279;-65
2022/03/29 05:57:49;;;;;;;29.70;14.93;;;;;;;10.85;66.46;94623.94;5031721;28;20253;-65
2022/03/29 06:00:16;;;;;;;32.00;15.90;;;;;;;10.99;67.03;94604.94;5031498;28;20201;-64
2022/03/29 06:02:41;;;;;;;24.23;13.93;;;;;;;10.99;66.33;94625.28;5031527;28;20186;-61
2022/03/29 06:05:09;;;;;;;28.60;13.97;;;;;;;11.20;65.49;94640.44;5013646;28;20192;-62
2022/03/29 06:07:42;;;;;;;33.53;14.53;;;;;;;11.31;65.61;94645.41;5031629;28;20190;-66
2022/03/29 06:10:08;;;;;;;28.67;13.57;;;;;;;11.41;65.14;94644.44;5031372;28;20177;-65
2022/03/29 06:12:36;;;;;;;25.97;13.13;;;;;;;11.62;64.03;94664.66;5013818;28;20190;-64
2022/03/29 06:15:03;;;;;;;30.03;12.63;;;;;;;11.47;64.44;94650.75;5013813;28;20261;-63
2022/03/29 06:17:29;;;;;;;27.87;14.07;;;;;;;11.62;63.95;94662.91;5032524;28;20711;-64
2022/03/29 06:19:55;;;;;;;26.27;13.30;;;;;;;11.56;63.33;94666.00;5017307;28;20217;-61
2022/03/29 06:22:20;;;;;;;25.03;12.10;;;;;;;11.50;63.90;94645.38;5036207;28;20190;-64
2022/03/29 06:24:47;;;;;;;21.67;11.63;;;;;;;11.53;63.65;94648.44;5036203;28;20178;-64
2022/03/29 06:27:12;;;;;;;19.63;10.93;;;;;;;11.76;62.75;94675.25;5035340;28;20335;-63
2022/03/29 06:29:38;;;;;;;18.97;10.23;;;;;;;11.61;63.27;94663.88;5019121;28;20215;-63
2022/03/29 06:32:03;;;;;;;19.17;11.27;;;;;;;11.59;63.56;94653.03;5022968;28;20242;-64
2022/03/29 06:34:29;;;;;;;17.60;10.90;;;;;;;11.57;63.54;94644.69;5035694;28;20209;-63
2022/03/29 06:36:56;;;;;;;21.87;11.00;;;;;;;11.52;64.51;94629.03;5035147;28;20213;-64
2022/03/29 06:39:21;;;;;;;20.73;11.53;;;;;;;11.49;63.62;94646.31;5020294;28;20189;-65
2022/03/29 06:41:47;;;;;;;20.03;11.43;;;;;;;11.28;65.80;94603.19;5017567;28;20210;-64
2022/03/29 06:44:13;;;;;;;19.77;11.00;;;;;;;11.26;64.70;94617.81;5035667;28;20170;-65
2022/03/29 06:46:39;;;;;;;23.57;11.70;;;;;;;11.34;65.53;94604.41;5036376;28;20206;-63
2022/03/29 06:49:06;;;;;;;19.20;11.47;;;;;;;11.52;63.68;94644.31;5035667;28;20181;-65
2022/03/29 06:51:35;;;;;;;22.13;13.03;;;;;;;11.43;64.69;94614.56;5035011;28;20288;-65
2022/03/29 06:54:04;;;;;;;21.43;11.77;;;;;;;11.53;64.46;94628.06;5018589;28;20312;-64
2022/03/29 06:56:30;;;;;;;22.47;12.70;;;;;;;11.75;63.79;94637.22;5016788;28;20206;-63
2022/03/29 06:58:57;;;;;;;18.27;11.40;;;;;;;11.82;63.35;94641.59;5034969;28;20206;-64
2022/03/29 07:01:23;;;;;;;22.63;12.40;;;;;;;11.84;62.57;94654.19;5041270;23;20228;-63
2022/03/29 07:03:48;;;;;;;17.37;11.67;;;;;;;11.75;63.19;94632.09;5034967;28;20261;-62
2022/03/29 07:06:14;;;;;;;16.23;10.80;;;;;;;11.80;63.10;94640.13;5034751;28;20577;-64
2022/03/29 07:11:16;;;;;;;23.33;12.03;;;;;;;11.97;61.81;94667.44;5035066;28;20273;-64
2022/03/29 07:11:25;;;;;;;20.27;11.33;;;;;;;11.96;61.92;94665.06;5034412;28;20198;-64
2022/03/29 07:13:50;;;;;;;18.43;11.77;;;;;;;12.15;61.35;94677.72;5034540;28;20562;-64
2022/03/29 07:16:16;;;;;;;22.57;11.80;;;;;;;12.15;61.44;94665.78;5034637;28;20198;-64
2022/03/29 07:18:42;;;;;;;25.73;11.20;;;;;;;12.27;61.15;94674.88;5034468;28;20221;-66
2022/03/29 07:21:10;;;;;;;17.83;10.97;;;;;;;12.31;61.19;94660.09;5034105;28;20642;-64
2022/03/29 07:23:36;;;;;;;17.93;10.77;;;;;;;12.53;60.71;94675.84;5016406;28;20660;-63
2022/03/29 07:26:02;;;;;;;18.70;11.30;;;;;;;12.34;60.94;94670.81;5016677;28;20717;-63
2022/03/29 07:28:27;;;;;;;19.57;11.57;;;;;;;12.52;59.85;94678.53;5016756;28;20590;-64
2022/03/29 07:30:53;;;;;;;21.30;11.47;;;;;;;12.71;58.96;94691.19;5015843;28;20610;-64
2022/03/29 07:33:19;;;;;;;25.13;10.73;;;;;;;12.70;59.49;94684.50;5016159;28;20177;-67
2022/03/29 07:35:46;;;;;;;16.10;11.23;;;;;;;12.67;59.09;94687.31;5034237;28;20198;-66
2022/03/29 07:38:12;;;;;;;19.47;10.90;;;;;;;12.69;59.03;94680.31;5033651;28;20194;-65
2022/03/29 07:40:39;;;;;;;19.77;10.13;;;;;;;12.95;58.18;94693.22;5033633;28;20440;-66
2022/03/29 07:43:05;;;;;;;20.47;11.40;;;;;;;13.32;57.63;94715.19;5033887;28;20227;-64
2022/03/29 07:45:32;;;;;;;21.27;12.90;;;;;;;13.20;57.78;94712.97;5034226;28;20198;-61
2022/03/29 07:47:57;;;;;;;23.93;12.87;;;;;;;13.52;57.20;94712.47;5033725;28;20284;-64
2022/03/29 07:50:24;;;;;;;18.53;11.47;;;;;;;13.57;57.21;94705.19;5034161;28;20305;-65
2022/03/29 07:52:50;;;;;;;21.13;11.23;;;;;;;13.64;57.73;94698.53;5015706;28;20181;-65
2022/03/29 07:55:17;;;;;;;15.93;10.80;;;;;;;13.97;57.02;94710.63;5015980;28;20203;-64
2022/03/29 07:57:43;;;;;;;15.13;10.20;;;;;;;13.79;55.76;94733.66;5033613;28;20202;-66
2022/03/29 08:02:56;;;;;;;12.90;8.27;;;;;;;13.80;52.30;94765.09;5033805;28;20181;-63
2022/03/29 08:05:22;;;;;;;13.83;9.00;;;;;;;13.96;53.12;94753.25;5033916;28;20206;-63
2022/03/29 08:07:47;;;;;;;14.70;8.80;;;;;;;14.14;53.69;94731.03;5033736;28;20563;-64
2022/03/29 08:10:13;;;;;;;12.60;7.28;;;;;;;14.28;52.88;94748.41;5033872;28;20197;-63
2022/03/29 08:12:42;;;;;;;14.27;8.10;;;;;;;14.45;50.29;94797.94;5033243;28;20182;-63
2022/03/29 08:15:08;;;;;;;14.05;7.80;;;;;;;14.51;51.07;94753.03;5033823;28;20188;-62
2022/03/29 08:17:34;;;;;;;15.73;7.60;;;;;;;14.56;51.47;94745.72;5015646;28;20217;-65
2022/03/29 08:20:04;;;;;;;13.07;6.68;;;;;;;14.43;49.96;94783.69;5015637;28;20187;-66
2022/03/29 08:22:30;;;;;;;11.52;7.50;;;;;;;14.59;50.10;94769.25;5015401;28;20182;-65
2022/03/29 08:24:55;;;;;;;16.20;8.05;;;;;;;14.66;51.27;94733.63;5033288;28;20193;-64
2022/03/29 08:27:21;;;;;;;16.10;8.50;;;;;;;14.91;51.06;94735.31;5033540;28;20182;-63
2022/03/29 08:29:47;;;;;;;14.48;8.15;;;;;;;15.20;50.41;94751.13;5033318;28;20655;-66
2022/03/29 08:32:13;;;;;;;15.27;7.97;;;;;;;15.24;48.63;94790.84;5015269;28;20294;-63
2022/03/29 08:34:39;;;;;;;16.35;8.68;;;;;;;15.45;49.82;94752.03;5033264;28;20261;-63
2022/03/29 08:37:04;;;;;;;15.15;8.82;;;;;;;15.55;49.33;94752.69;5033008;28;20209;-66
2022/03/29 08:39:30;;;;;;;17.45;7.88;;;;;;;15.60;47.81;94794.81;5032985;28;20190;-64
2022/03/29 08:42:11;;;;;;;15.85;7.40;;;;;;;15.73;46.29;94815.69;5038798;23;20810;-64
2022/03/29 08:44:39;;;;;;;14.88;7.88;;;;;;;15.76;46.98;94787.16;5032649;28;20209;-63
2022/03/29 08:47:09;;;;;;;10.65;7.57;;;;;;;15.88;44.87;94834.63;5032822;28;20264;-69
2022/03/29 08:49:35;;;;;;;18.48;8.75;;;;;;;16.04;44.49;94833.81;5032980;28;20201;-64
2022/03/29 08:52:03;;;;;;;20.30;7.85;;;;;;;15.76;44.86;94804.28;5032990;28;20628;-63
2022/03/29 08:54:29;;;;;;;11.82;7.80;;;;;;;15.81;44.55;94807.22;5014740;28;20200;-65
2022/03/29 08:56:55;;;;;;;14.60;7.30;;;;;;;15.51;44.63;94788.09;5032614;28;20190;-65
2022/03/29 08:59:21;;;;;;;15.77;7.28;;;;;;;15.80;44.55;94785.06;5032298;28;20178;-64
2022/03/29 09:01:47;;;;;;;17.30;7.43;;;;;;;16.23;44.07;94807.88;5033031;28;20193;-63
2022/03/29 09:04:20;;;;;;;12.73;7.90;;;;;;;16.48;43.96;94795.84;5032554;28;20208;-66
2022/03/29 09:06:56;;;;;;;18.17;8.38;;;;;;;16.86;42.38;94835.47;5033098;28;20636;-66
2022/03/29 09:11:58;;;;;;;14.80;7.53;;;;;;;17.43;43.42;94786.28;5038089;23;20291;-62
2022/03/29 09:14:29;;;;;;;14.13;7.72;;;;;;;17.81;40.46;94864.41;5032207;28;20177;-67
2022/03/29 09:16:55;;;;;;;12.45;7.03;;;;;;;18.03;42.05;94795.94;5031959;28;20883;-66
2022/03/29 09:19:24;;;;;;;19.17;7.32;;;;;;;18.21;39.92;94856.44;5032059;28;20247;-64
2022/03/29 09:24:18;;;;;;;17.05;7.32;;;;;;;18.35;38.29;94878.06;5011146;28;20218;-65
2022/03/29 09:26:54;;;;;;;12.75;7.22;;;;;;;18.52;38.24;94871.88;5012640;28;20581;-65
2022/03/29 09:29:22;;;;;;;13.50;6.30;;;;;;;18.79;37.01;94896.25;5012518;28;20576;-64
2022/03/29 09:32:06;;;;;;;13.13;6.68;;;;;;;18.83;37.15;94885.44;5012843;28;20684;-67
2022/03/29 09:34:32;;;;;;;14.85;6.22;;;;;;;19.07;37.28;94778.75;5012553;28;20254;-66
2022/03/29 09:36:59;;;;;;;12.93;5.82;;;;;;;19.22;36.16;94795.03;5012662;28;20272;-65
2022/03/29 09:39:35;;;;;;;15.73;6.15;;;;;;;18.89;35.50;94792.00;5012268;28;20182;-65
2022/03/29 09:42:07;;;;;;;16.88;6.07;;;;;;;18.66;35.29;94708.06;5012288;28;20210;-66
2022/03/29 09:44:40;;;;;;;15.15;6.75;;;;;;;18.89;35.89;94678.63;5012148;28;20163;-64
2022/03/29 09:47:09;;;;;;;13.25;5.78;;;;;;;19.08;34.62;94687.59;5012503;28;20238;-63
2022/03/29 09:50:09;;;;;;;16.05;6.35;;;;;;;18.81;35.22;94636.72;5012628;28;20258;-66
2022/03/29 09:52:37;;;;;;;12.55;5.90;;;;;;;19.14;36.73;94552.84;5013034;28;20218;-65
2022/03/29 09:55:16;;;;;;;9.38;5.40;;;;;;;19.04;35.46;94573.78;5014181;28;20179;-66
2022/03/29 09:58:00;;;;;;;13.35;6.03;;;;;;;19.08;34.07;94592.22;5016228;28;20245;-66
2022/03/29 10:00:28;;;;;;;15.05;5.80;;;;;;;19.22;34.68;94568.19;5016208;28;20206;-65
2022/03/29 10:02:54;;;;;;;15.07;5.85;;;;;;;19.21;33.62;94582.84;5016332;28;20288;-64
2022/03/29 10:05:20;;;;;;;13.25;5.68;;;;;;;19.12;34.14;94557.38;5014698;28;20688;-62
2022/03/29 10:10:47;;;;;;;13.23;5.22;;;;;;;19.38;34.17;94528.47;5015953;28;20209;-67
2022/03/29 10:13:14;;;;;;;9.93;5.93;;;;;;;18.92;34.03;94503.09;5014989;28;20559;-65
2022/03/29 10:15:45;;;;;;;13.95;6.22;;;;;;;19.37;33.70;94496.78;5030848;28;20265;-65
2022/03/29 10:18:18;;;;;;;14.98;5.43;;;;;;;19.86;33.90;94471.69;5015895;28;20230;-63
2022/03/29 10:20:44;;;;;;;15.55;5.70;;;;;;;20.09;32.97;94492.03;5015295;28;20198;-65
2022/03/29 10:23:14;;;;;;;14.88;5.65;;;;;;;20.30;33.05;94476.47;5025858;28;20194;-64
2022/03/29 10:25:41;;;;;;;17.45;6.10;;;;;;;20.33;33.21;94465.75;5035467;28;20651;-62
2022/03/29 10:28:08;;;;;;;12.18;5.80;;;;;;;20.31;32.84;94454.81;5035719;28;20190;-64
2022/03/29 10:30:42;;;;;;;12.52;5.57;;;;;;;20.50;31.84;94461.06;5035249;28;20202;-65
2022/03/29 10:33:16;;;;;;;30.48;8.55;;;;;;;20.52;31.25;94467.59;5035995;28;20198;-65
2022/03/29 10:36:07;;;;;;;15.18;5.93;;;;;;;20.07;31.92;94429.50;5035358;28;20209;-65
2022/03/29 10:38:48;;;;;;;11.32;5.55;;;;;;;19.91;32.80;94415.16;5036041;28;20341;-64
2022/03/29 10:41:28;;;;;;;17.30;5.82;;;;;;;20.24;33.25;94399.78;5017397;28;20256;-66
2022/03/29 10:44:14;;;;;;;14.90;5.90;;;;;;;20.20;33.00;94401.16;5035375;28;20201;-64
2022/03/29 10:46:46;;;;;;;11.25;5.20;;;;;;;19.71;32.57;94403.94;5035250;28;20210;-66
2022/03/29 10:49:25;;;;;;;12.18;6.13;;;;;;;19.32;33.56;94382.25;5034857;28;20720;-66
2022/03/29 10:51:57;;;;;;;14.88;5.82;;;;;;;19.18;34.06;94376.22;5034961;28;20221;-66
2022/03/29 10:54:29;;;;;;;43.90;8.02;;;;;;;19.06;33.47;94378.53;5034938;28;20680;-65
2022/03/29 10:57:01;;;;;;;19.33;5.35;;;;;;;19.44;32.82;94381.56;5017075;28;20218;-66
2022/03/29 10:59:27;;;;;;;14.45;6.07;;;;;;;19.23;33.39;94364.34;5017049;28;20178;-66
2022/03/29 11:02:13;;;;;;;14.38;5.40;;;;;;;19.35;32.03;94380.16;5051780;23;20633;-67
2022/03/29 11:05:00;;;;;;;19.33;5.63;;;;;;;19.26;32.61;94370.94;5034467;28;20240;-65
2022/03/29 11:07:26;;;;;;;14.10;6.00;;;;;;;18.86;32.56;94363.91;5060438;23;20221;-63
2022/03/29 11:10:09;;;;;;;15.90;6.18;;;;;;;18.56;33.47;94352.19;5054973;28;20190;-66
2022/03/29 11:12:44;;;;;;;19.83;5.88;;;;;;;18.04;33.83;94344.75;5034607;28;20277;-67
2022/03/29 11:15:24;;;;;;;25.40;6.13;;;;;;;17.83;34.12;94324.94;5035698;28;20308;-66
2022/03/29 11:17:54;;;;;;;18.98;6.00;;;;;;;18.18;34.98;94306.06;5035439;28;20288;-66
2022/03/29 11:20:40;;;;;;;13.82;5.10;;;;;;;18.38;34.83;94309.63;5035598;28;20814;-65
2022/03/29 11:23:12;;;;;;;14.98;5.07;;;;;;;18.27;33.52;94319.63;5035244;28;20555;-66
2022/03/29 11:25:41;;;;;;;17.75;6.10;;;;;;;19.04;34.43;94307.56;5035342;28;20304;-63
2022/03/29 11:28:10;;;;;;;21.10;5.82;;;;;;;19.14;33.69;94313.97;5034737;28;20666;-68
2022/03/29 11:30:36;;;;;;;14.57;5.03;;;;;;;19.00;32.48;94332.09;5049360;28;20238;-66
2022/03/29 11:33:04;;;;;;;15.15;4.88;;;;;;;18.33;33.36;94311.16;5034226;28;20663;-65
2022/03/29 11:35:31;;;;;;;9.80;4.47;;;;;;;17.90;33.95;94310.34;5034582;28;20213;-66
2022/03/29 11:38:16;;;;;;;17.33;4.85;;;;;;;17.76;33.70;94300.13;5035405;28;20214;-65
2022/03/29 11:40:42;;;;;;;10.73;4.75;;;;;;;18.07;34.05;94283.44;5034840;28;20202;-66